PILOTS ONLINE: 247    ATC ONLINE: 13

KVBG

Vandenberg Air Force Base

Location

City Lompoc
Country  United States
Latitude 34° 44' 14" N
Longitude 120° 35' 2" W
Elevation 369 ft
Type Large Airport

Map

Weather

METAR
2014/09/18 10:55
KVBG 181055Z AUTO 00000KT 10SM OVC008 18/14 A2986 RMK AO2 SLP101 T01780144 TSNO $ 
TAF
2014/09/17 22:18
TAF KVBG 1722/1904 31009KT 9999 FEW004 QNH2982INS 
      BECMG 1800/1801 33009KT 8000 BR SCT004 BKN010 QNH2980INS 
      BECMG 1802/1803 33009KT 4800 BR BKN004 BKN006 QNH2981INS 
      BECMG 1805/1806 33009KT 1600 BR BKN002 QNH2988INS 
      BECMG 1809/1810 VRB06KT 3200 -DZ BR OVC002 QNH2990INS 
      BECMG 1814/1815 30009KT 4800 BR BKN004 QNH2990INS 
      BECMG 1815/1816 33009KT 9999 NSW BKN007 QNH2990INS 
      BECMG 1820/1821 30009KT 9999 BKN010 QNH2993INS 
      BECMG 1900/1901 33009KT 4800 BR BKN006 QNH2994INS TX25/1722Z TN16/1811Z LAST NO 
      AMDS AFT 1800 NEXT 1814

Runways

12/30 15000 ft / 200 ft

Outbound flights

Callsign Flying to Pilot ATD/STD ETA Aircraft

Inbound flights

Callsign Flying from Pilot ATD ETA Aircraft